sensor_id;sensor_type;location;lat;lon;timestamp;temperature;humidity
23618;DHT22;18207;32.078;34.818;2023-08-06T00:00:13;32.20;47.60
23618;DHT22;18207;32.078;34.818;2023-08-06T00:02:43;32.20;47.70
23618;DHT22;18207;32.078;34.818;2023-08-06T00:05:13;32.20;47.70
23618;DHT22;18207;32.078;34.818;2023-08-06T00:07:45;32.20;47.70
23618;DHT22;18207;32.078;34.818;2023-08-06T00:10:17;32.20;47.70
23618;DHT22;18207;32.078;34.818;2023-08-06T00:12:48;32.20;47.70
23618;DHT22;18207;32.078;34.818;2023-08-06T00:15:18;32.20;47.70
23618;DHT22;18207;32.078;34.818;2023-08-06T00:17:49;32.20;47.70
23618;DHT22;18207;32.078;34.818;2023-08-06T00:20:19;32.10;47.60
23618;DHT22;18207;32.078;34.818;2023-08-06T00:22:50;32.10;47.70
23618;DHT22;18207;32.078;34.818;2023-08-06T00:25:22;32.10;47.70
23618;DHT22;18207;32.078;34.818;2023-08-06T00:27:52;32.10;47.80
23618;DHT22;18207;32.078;34.818;2023-08-06T00:30:24;32.10;47.80
23618;DHT22;18207;32.078;34.818;2023-08-06T00:32:54;32.10;47.80
23618;DHT22;18207;32.078;34.818;2023-08-06T00:35:24;32.10;47.80
23618;DHT22;18207;32.078;34.818;2023-08-06T00:37:54;32.10;47.80
23618;DHT22;18207;32.078;34.818;2023-08-06T00:40:27;32.00;47.80
23618;DHT22;18207;32.078;34.818;2023-08-06T00:42:58;32.00;47.80
23618;DHT22;18207;32.078;34.818;2023-08-06T00:45:29;32.00;47.80
23618;DHT22;18207;32.078;34.818;2023-08-06T00:48:05;32.00;47.70
23618;DHT22;18207;32.078;34.818;2023-08-06T00:50:35;32.00;47.80
23618;DHT22;18207;32.078;34.818;2023-08-06T00:53:06;31.90;47.70
23618;DHT22;18207;32.078;34.818;2023-08-06T00:55:39;31.90;47.70
23618;DHT22;18207;32.078;34.818;2023-08-06T00:58:11;31.90;47.80
23618;DHT22;18207;32.078;34.818;2023-08-06T01:00:44;31.80;47.80
23618;DHT22;18207;32.078;34.818;2023-08-06T01:03:14;31.80;48.50
23618;DHT22;18207;32.078;34.818;2023-08-06T01:05:45;31.80;47.90
23618;DHT22;18207;32.078;34.818;2023-08-06T01:08:28;31.80;48.00
23618;DHT22;18207;32.078;34.818;2023-08-06T01:11:18;31.80;48.00
23618;DHT22;18207;32.078;34.818;2023-08-06T01:14:02;31.80;48.00
23618;DHT22;18207;32.078;34.818;2023-08-06T01:16:38;31.80;48.00
23618;DHT22;18207;32.078;34.818;2023-08-06T01:19:16;31.80;48.00
23618;DHT22;18207;32.078;34.818;2023-08-06T01:21:48;31.70;48.00
23618;DHT22;18207;32.078;34.818;2023-08-06T01:24:19;31.60;48.00
23618;DHT22;18207;32.078;34.818;2023-08-06T01:26:56;31.70;48.20
23618;DHT22;18207;32.078;34.818;2023-08-06T01:29:38;31.70;48.20
23618;DHT22;18207;32.078;34.818;2023-08-06T01:32:12;31.60;48.50
23618;DHT22;18207;32.078;34.818;2023-08-06T01:34:46;31.60;48.10
23618;DHT22;18207;32.078;34.818;2023-08-06T01:37:21;31.60;48.10
23618;DHT22;18207;32.078;34.818;2023-08-06T01:39:51;31.60;48.10
23618;DHT22;18207;32.078;34.818;2023-08-06T01:42:21;31.60;48.10
23618;DHT22;18207;32.078;34.818;2023-08-06T01:44:51;31.60;48.20
23618;DHT22;18207;32.078;34.818;2023-08-06T01:47:22;31.60;48.20
23618;DHT22;18207;32.078;34.818;2023-08-06T01:49:52;31.60;48.20
23618;DHT22;18207;32.078;34.818;2023-08-06T01:52:24;31.50;48.10
23618;DHT22;18207;32.078;34.818;2023-08-06T01:54:54;31.50;48.10
23618;DHT22;18207;32.078;34.818;2023-08-06T01:57:25;31.50;48.20
23618;DHT22;18207;32.078;34.818;2023-08-06T01:59:55;31.50;48.10
23618;DHT22;18207;32.078;34.818;2023-08-06T02:02:26;31.40;48.10
23618;DHT22;18207;32.078;34.818;2023-08-06T02:04:57;31.40;48.10
23618;DHT22;18207;32.078;34.818;2023-08-06T02:07:29;31.40;48.20
23618;DHT22;18207;32.078;34.818;2023-08-06T02:09:59;31.40;48.20
23618;DHT22;18207;32.078;34.818;2023-08-06T02:12:29;31.40;48.30
23618;DHT22;18207;32.078;34.818;2023-08-06T02:14:59;31.40;48.30
23618;DHT22;18207;32.078;34.818;2023-08-06T02:17:29;31.40;48.30
23618;DHT22;18207;32.078;34.818;2023-08-06T02:20:00;31.40;48.20
23618;DHT22;18207;32.078;34.818;2023-08-06T02:22:32;31.40;48.30
23618;DHT22;18207;32.078;34.818;2023-08-06T02:25:02;31.40;48.30
23618;DHT22;18207;32.078;34.818;2023-08-06T02:27:32;31.40;48.30
23618;DHT22;18207;32.078;34.818;2023-08-06T02:30:03;31.40;48.40
23618;DHT22;18207;32.078;34.818;2023-08-06T02:32:34;31.30;48.30
23618;DHT22;18207;32.078;34.818;2023-08-06T02:35:04;31.40;48.40
23618;DHT22;18207;32.078;34.818;2023-08-06T02:37:37;31.40;48.50
23618;DHT22;18207;32.078;34.818;2023-08-06T02:40:08;31.40;48.50
23618;DHT22;18207;32.078;34.818;2023-08-06T02:42:39;31.30;49.10
23618;DHT22;18207;32.078;34.818;2023-08-06T02:45:09;31.30;48.60
23618;DHT22;18207;32.078;34.818;2023-08-06T02:47:40;31.30;48.50
23618;DHT22;18207;32.078;34.818;2023-08-06T02:50:10;31.30;48.60
23618;DHT22;18207;32.078;34.818;2023-08-06T02:52:43;31.30;48.70
23618;DHT22;18207;32.078;34.818;2023-08-06T02:55:13;31.30;48.70
23618;DHT22;18207;32.078;34.818;2023-08-06T02:57:43;31.30;48.70
23618;DHT22;18207;32.078;34.818;2023-08-06T03:00:14;31.30;48.70
23618;DHT22;18207;32.078;34.818;2023-08-06T03:02:44;31.30;48.70
23618;DHT22;18207;32.078;34.818;2023-08-06T03:05:14;31.20;48.60
23618;DHT22;18207;32.078;34.818;2023-08-06T03:07:47;31.20;48.70
23618;DHT22;18207;32.078;34.818;2023-08-06T03:10:17;31.30;48.70
23618;DHT22;18207;32.078;34.818;2023-08-06T03:13:06;31.20;48.60
23618;DHT22;18207;32.078;34.818;2023-08-06T03:15:36;31.20;48.60
23618;DHT22;18207;32.078;34.818;2023-08-06T03:18:07;31.20;48.60
23618;DHT22;18207;32.078;34.818;2023-08-06T03:20:37;31.20;48.60
23618;DHT22;18207;32.078;34.818;2023-08-06T03:23:09;31.20;48.70
23618;DHT22;18207;32.078;34.818;2023-08-06T03:25:39;31.20;48.80
23618;DHT22;18207;32.078;34.818;2023-08-06T03:28:09;31.20;48.80
23618;DHT22;18207;32.078;34.818;2023-08-06T03:30:46;31.20;48.80
23618;DHT22;18207;32.078;34.818;2023-08-06T03:33:15;31.20;48.80
23618;DHT22;18207;32.078;34.818;2023-08-06T03:35:46;31.20;48.80
23618;DHT22;18207;32.078;34.818;2023-08-06T03:38:18;31.20;48.80
23618;DHT22;18207;32.078;34.818;2023-08-06T03:40:48;31.20;48.80
23618;DHT22;18207;32.078;34.818;2023-08-06T03:43:19;31.20;48.80
23618;DHT22;18207;32.078;34.818;2023-08-06T03:45:48;31.20;48.80
23618;DHT22;18207;32.078;34.818;2023-08-06T03:48:18;31.20;48.90
23618;DHT22;18207;32.078;34.818;2023-08-06T03:50:49;31.20;48.90
23618;DHT22;18207;32.078;34.818;2023-08-06T03:53:21;31.20;48.90
23618;DHT22;18207;32.078;34.818;2023-08-06T03:55:52;31.20;48.90
23618;DHT22;18207;32.078;34.818;2023-08-06T03:58:23;31.20;49.00
23618;DHT22;18207;32.078;34.818;2023-08-06T04:00:58;31.20;48.90
23618;DHT22;18207;32.078;34.818;2023-08-06T04:03:29;31.20;49.00
23618;DHT22;18207;32.078;34.818;2023-08-06T04:06:02;31.20;49.00
23618;DHT22;18207;32.078;34.818;2023-08-06T04:08:35;31.30;49.10
23618;DHT22;18207;32.078;34.818;2023-08-06T04:11:05;31.30;49.10
23618;DHT22;18207;32.078;34.818;2023-08-06T04:13:36;31.30;49.10
23618;DHT22;18207;32.078;34.818;2023-08-06T04:16:06;31.30;49.10
23618;DHT22;18207;32.078;34.818;2023-08-06T04:18:35;31.30;49.10
23618;DHT22;18207;32.078;34.818;2023-08-06T04:21:06;31.40;49.20
23618;DHT22;18207;32.078;34.818;2023-08-06T04:23:39;31.40;49.20
23618;DHT22;18207;32.078;34.818;2023-08-06T04:26:09;31.40;49.20
23618;DHT22;18207;32.078;34.818;2023-08-06T04:28:39;31.40;49.20
23618;DHT22;18207;32.078;34.818;2023-08-06T04:31:09;31.50;49.30
23618;DHT22;18207;32.078;34.818;2023-08-06T04:33:39;31.50;49.20
23618;DHT22;18207;32.078;34.818;2023-08-06T04:36:11;31.50;49.30
23618;DHT22;18207;32.078;34.818;2023-08-06T04:38:43;31.60;49.30
23618;DHT22;18207;32.078;34.818;2023-08-06T04:41:15;31.50;49.30
23618;DHT22;18207;32.078;34.818;2023-08-06T04:43:45;31.60;49.30
23618;DHT22;18207;32.078;34.818;2023-08-06T04:46:16;31.60;49.40
23618;DHT22;18207;32.078;34.818;2023-08-06T04:48:46;31.70;49.40
23618;DHT22;18207;32.078;34.818;2023-08-06T04:51:16;31.70;49.40
23618;DHT22;18207;32.078;34.818;2023-08-06T04:53:49;31.70;49.40
23618;DHT22;18207;32.078;34.818;2023-08-06T04:56:19;31.80;49.50
23618;DHT22;18207;32.078;34.818;2023-08-06T04:58:51;31.80;49.40
23618;DHT22;18207;32.078;34.818;2023-08-06T05:01:21;31.80;49.40
23618;DHT22;18207;32.078;34.818;2023-08-06T05:03:51;31.80;49.40
23618;DHT22;18207;32.078;34.818;2023-08-06T05:06:21;31.90;49.40
23618;DHT22;18207;32.078;34.818;2023-08-06T05:08:54;31.90;49.40
23618;DHT22;18207;32.078;34.818;2023-08-06T05:11:24;32.00;49.30
23618;DHT22;18207;32.078;34.818;2023-08-06T05:13:54;32.00;49.30
23618;DHT22;18207;32.078;34.818;2023-08-06T05:16:25;32.10;49.40
23618;DHT22;18207;32.078;34.818;2023-08-06T05:18:55;32.10;49.40
23618;DHT22;18207;32.078;34.818;2023-08-06T05:21:25;32.20;49.50
23618;DHT22;18207;32.078;34.818;2023-08-06T05:23:57;32.20;49.50
23618;DHT22;18207;32.078;34.818;2023-08-06T05:26:28;32.20;49.40
23618;DHT22;18207;32.078;34.818;2023-08-06T05:28:58;32.30;49.40
23618;DHT22;18207;32.078;34.818;2023-08-06T05:31:28;32.30;49.40
23618;DHT22;18207;32.078;34.818;2023-08-06T05:33:58;32.40;49.50
23618;DHT22;18207;32.078;34.818;2023-08-06T05:36:29;32.40;49.50
23618;DHT22;18207;32.078;34.818;2023-08-06T05:39:01;32.50;49.40
23618;DHT22;18207;32.078;34.818;2023-08-06T05:41:31;32.50;49.40
23618;DHT22;18207;32.078;34.818;2023-08-06T05:44:01;32.50;49.40
23618;DHT22;18207;32.078;34.818;2023-08-06T05:46:32;32.60;49.40
23618;DHT22;18207;32.078;34.818;2023-08-06T05:49:02;32.60;49.40
23618;DHT22;18207;32.078;34.818;2023-08-06T05:51:32;32.70;49.60
23618;DHT22;18207;32.078;34.818;2023-08-06T05:54:04;32.70;49.60
23618;DHT22;18207;32.078;34.818;2023-08-06T05:56:35;32.80;49.40
23618;DHT22;18207;32.078;34.818;2023-08-06T05:59:05;32.80;49.40
23618;DHT22;18207;32.078;34.818;2023-08-06T06:01:35;32.90;49.50
23618;DHT22;18207;32.078;34.818;2023-08-06T06:04:08;32.90;49.50
23618;DHT22;18207;32.078;34.818;2023-08-06T06:06:39;33.00;49.40
23618;DHT22;18207;32.078;34.818;2023-08-06T06:09:12;33.00;49.30
23618;DHT22;18207;32.078;34.818;2023-08-06T06:11:42;33.10;49.30
23618;DHT22;18207;32.078;34.818;2023-08-06T06:14:12;33.20;49.30
23618;DHT22;18207;32.078;34.818;2023-08-06T06:16:42;33.20;49.20
23618;DHT22;18207;32.078;34.818;2023-08-06T06:19:12;33.30;49.10
23618;DHT22;18207;32.078;34.818;2023-08-06T06:21:43;33.40;49.20
23618;DHT22;18207;32.078;34.818;2023-08-06T06:24:15;33.40;49.00
23618;DHT22;18207;32.078;34.818;2023-08-06T06:26:45;33.40;48.90
23618;DHT22;18207;32.078;34.818;2023-08-06T06:29:15;33.50;48.90
23618;DHT22;18207;32.078;34.818;2023-08-06T06:31:46;33.50;48.80
23618;DHT22;18207;32.078;34.818;2023-08-06T06:34:16;33.60;48.80
23618;DHT22;18207;32.078;34.818;2023-08-06T06:36:47;33.60;48.80
23618;DHT22;18207;32.078;34.818;2023-08-06T06:39:19;33.70;48.70
23618;DHT22;18207;32.078;34.818;2023-08-06T06:41:50;33.70;48.60
23618;DHT22;18207;32.078;34.818;2023-08-06T06:44:21;33.80;48.40
23618;DHT22;18207;32.078;34.818;2023-08-06T06:46:51;33.80;48.30
23618;DHT22;18207;32.078;34.818;2023-08-06T06:49:20;33.90;48.20
23618;DHT22;18207;32.078;34.818;2023-08-06T06:51:51;33.90;48.10
23618;DHT22;18207;32.078;34.818;2023-08-06T06:54:24;33.90;48.10
23618;DHT22;18207;32.078;34.818;2023-08-06T06:56:54;34.00;48.10
23618;DHT22;18207;32.078;34.818;2023-08-06T06:59:24;34.00;48.60
23618;DHT22;18207;32.078;34.818;2023-08-06T07:01:55;34.00;47.90
23618;DHT22;18207;32.078;34.818;2023-08-06T07:04:25;34.10;47.80
23618;DHT22;18207;32.078;34.818;2023-08-06T07:06:55;34.10;47.70
23618;DHT22;18207;32.078;34.818;2023-08-06T07:09:28;34.20;47.70
23618;DHT22;18207;32.078;34.818;2023-08-06T07:11:58;34.20;47.60
23618;DHT22;18207;32.078;34.818;2023-08-06T07:14:29;34.30;47.60
23618;DHT22;18207;32.078;34.818;2023-08-06T07:16:59;34.30;47.40
23618;DHT22;18207;32.078;34.818;2023-08-06T07:19:30;34.40;47.30
23618;DHT22;18207;32.078;34.818;2023-08-06T07:22:00;34.50;47.20
23618;DHT22;18207;32.078;34.818;2023-08-06T07:24:31;34.50;47.10
23618;DHT22;18207;32.078;34.818;2023-08-06T07:27:01;34.60;47.00
23618;DHT22;18207;32.078;34.818;2023-08-06T07:29:32;34.60;46.90
23618;DHT22;18207;32.078;34.818;2023-08-06T07:32:03;34.60;46.60
23618;DHT22;18207;32.078;34.818;2023-08-06T07:34:35;34.70;46.60
23618;DHT22;18207;32.078;34.818;2023-08-06T07:37:06;34.80;46.60
23618;DHT22;18207;32.078;34.818;2023-08-06T07:39:47;34.80;46.50
23618;DHT22;18207;32.078;34.818;2023-08-06T07:42:17;34.90;46.50
23618;DHT22;18207;32.078;34.818;2023-08-06T07:44:51;34.90;46.40
23618;DHT22;18207;32.078;34.818;2023-08-06T07:47:24;34.90;46.30
23618;DHT22;18207;32.078;34.818;2023-08-06T07:49:55;35.00;46.30
23618;DHT22;18207;32.078;34.818;2023-08-06T07:52:25;35.00;46.10
23618;DHT22;18207;32.078;34.818;2023-08-06T07:54:57;35.10;46.00
23618;DHT22;18207;32.078;34.818;2023-08-06T07:57:29;35.10;45.80
23618;DHT22;18207;32.078;34.818;2023-08-06T07:59:59;35.20;45.70
23618;DHT22;18207;32.078;34.818;2023-08-06T08:02:30;35.20;45.60
23618;DHT22;18207;32.078;34.818;2023-08-06T08:05:00;35.30;45.40
23618;DHT22;18207;32.078;34.818;2023-08-06T08:07:30;35.30;45.20
23618;DHT22;18207;32.078;34.818;2023-08-06T08:10:03;35.30;45.20
23618;DHT22;18207;32.078;34.818;2023-08-06T08:12:34;35.40;45.10
23618;DHT22;18207;32.078;34.818;2023-08-06T08:15:05;35.40;45.00
23618;DHT22;18207;32.078;34.818;2023-08-06T08:17:35;35.40;44.80
23618;DHT22;18207;32.078;34.818;2023-08-06T08:20:07;35.50;44.60
23618;DHT22;18207;32.078;34.818;2023-08-06T08:22:37;35.50;44.50
23618;DHT22;18207;32.078;34.818;2023-08-06T08:25:09;35.60;44.60
23618;DHT22;18207;32.078;34.818;2023-08-06T08:27:40;35.60;44.60
23618;DHT22;18207;32.078;34.818;2023-08-06T08:30:10;35.60;44.40
23618;DHT22;18207;32.078;34.818;2023-08-06T08:32:40;35.70;44.30
23618;DHT22;18207;32.078;34.818;2023-08-06T08:35:11;35.70;44.10
23618;DHT22;18207;32.078;34.818;2023-08-06T08:37:44;35.80;44.20
23618;DHT22;18207;32.078;34.818;2023-08-06T08:40:15;35.80;44.20
23618;DHT22;18207;32.078;34.818;2023-08-06T08:42:46;35.80;44.30
23618;DHT22;18207;32.078;34.818;2023-08-06T08:45:17;35.90;44.40
23618;DHT22;18207;32.078;34.818;2023-08-06T08:47:50;35.90;44.30
23618;DHT22;18207;32.078;34.818;2023-08-06T08:50:21;35.90;44.10
23618;DHT22;18207;32.078;34.818;2023-08-06T08:52:52;35.90;44.00
23618;DHT22;18207;32.078;34.818;2023-08-06T08:55:24;36.00;44.00
23618;DHT22;18207;32.078;34.818;2023-08-06T08:57:55;36.00;43.80
23618;DHT22;18207;32.078;34.818;2023-08-06T09:00:26;36.00;43.70
23618;DHT22;18207;32.078;34.818;2023-08-06T09:02:59;36.10;43.60
23618;DHT22;18207;32.078;34.818;2023-08-06T09:05:32;36.10;43.40
23618;DHT22;18207;32.078;34.818;2023-08-06T09:08:04;36.10;43.40
23618;DHT22;18207;32.078;34.818;2023-08-06T09:10:36;36.10;43.10
23618;DHT22;18207;32.078;34.818;2023-08-06T09:13:08;36.10;42.90
23618;DHT22;18207;32.078;34.818;2023-08-06T09:15:40;36.20;42.80
23618;DHT22;18207;32.078;34.818;2023-08-06T09:18:12;36.10;42.70
23618;DHT22;18207;32.078;34.818;2023-08-06T09:20:42;36.10;42.70
23618;DHT22;18207;32.078;34.818;2023-08-06T09:23:13;36.20;42.60
23618;DHT22;18207;32.078;34.818;2023-08-06T09:25:45;36.20;42.60
23618;DHT22;18207;32.078;34.818;2023-08-06T09:28:16;36.20;42.50
23618;DHT22;18207;32.078;34.818;2023-08-06T09:30:48;36.20;42.40
23618;DHT22;18207;32.078;34.818;2023-08-06T09:33:18;36.20;42.40
23618;DHT22;18207;32.078;34.818;2023-08-06T09:35:49;36.20;42.40
23618;DHT22;18207;32.078;34.818;2023-08-06T09:38:22;36.20;42.40
23618;DHT22;18207;32.078;34.818;2023-08-06T09:40:55;36.20;42.40
23618;DHT22;18207;32.078;34.818;2023-08-06T09:43:25;36.20;42.40
23618;DHT22;18207;32.078;34.818;2023-08-06T09:45:55;36.30;42.40
23618;DHT22;18207;32.078;34.818;2023-08-06T09:48:26;36.30;42.40
23618;DHT22;18207;32.078;34.818;2023-08-06T09:50:56;36.30;42.30
23618;DHT22;18207;32.078;34.818;2023-08-06T09:53:27;36.30;42.30
23618;DHT22;18207;32.078;34.818;2023-08-06T09:55:59;36.30;42.20
23618;DHT22;18207;32.078;34.818;2023-08-06T09:58:31;36.30;42.20
23618;DHT22;18207;32.078;34.818;2023-08-06T10:01:02;36.30;42.20
23618;DHT22;18207;32.078;34.818;2023-08-06T10:03:34;36.30;42.20
23618;DHT22;18207;32.078;34.818;2023-08-06T10:06:06;36.30;42.20
23618;DHT22;18207;32.078;34.818;2023-08-06T10:08:36;36.30;42.20
23618;DHT22;18207;32.078;34.818;2023-08-06T10:11:10;36.30;42.20
23618;DHT22;18207;32.078;34.818;2023-08-06T10:13:42;36.30;42.20
23618;DHT22;18207;32.078;34.818;2023-08-06T10:16:13;36.30;42.20
23618;DHT22;18207;32.078;34.818;2023-08-06T10:18:47;36.40;42.30
23618;DHT22;18207;32.078;34.818;2023-08-06T10:21:20;36.40;42.20
23618;DHT22;18207;32.078;34.818;2023-08-06T10:23:55;36.40;42.10
23618;DHT22;18207;32.078;34.818;2023-08-06T10:26:29;36.40;42.10
23618;DHT22;18207;32.078;34.818;2023-08-06T10:29:00;36.40;42.10
23618;DHT22;18207;32.078;34.818;2023-08-06T10:31:58;36.40;42.00
23618;DHT22;18207;32.078;34.818;2023-08-06T10:34:54;36.40;42.00
23618;DHT22;18207;32.078;34.818;2023-08-06T10:37:35;36.40;41.80
23618;DHT22;18207;32.078;34.818;2023-08-06T10:40:09;36.40;41.90
23618;DHT22;18207;32.078;34.818;2023-08-06T10:42:41;36.40;42.00
23618;DHT22;18207;32.078;34.818;2023-08-06T10:45:18;36.40;42.00
23618;DHT22;18207;32.078;34.818;2023-08-06T10:47:51;36.50;42.10
23618;DHT22;18207;32.078;34.818;2023-08-06T10:50:23;36.40;42.10
23618;DHT22;18207;32.078;34.818;2023-08-06T10:52:55;36.40;42.60
23618;DHT22;18207;32.078;34.818;2023-08-06T10:55:27;36.40;42.00
23618;DHT22;18207;32.078;34.818;2023-08-06T10:57:59;36.40;42.00
23618;DHT22;18207;32.078;34.818;2023-08-06T11:00:30;36.40;42.00
23618;DHT22;18207;32.078;34.818;2023-08-06T11:03:03;36.40;42.10
23618;DHT22;18207;32.078;34.818;2023-08-06T11:05:49;36.40;42.10
23618;DHT22;18207;32.078;34.818;2023-08-06T11:08:24;36.40;42.10
23618;DHT22;18207;32.078;34.818;2023-08-06T11:11:07;36.40;42.20
23618;DHT22;18207;32.078;34.818;2023-08-06T11:13:42;36.40;42.10
23618;DHT22;18207;32.078;34.818;2023-08-06T11:16:14;36.40;42.20
23618;DHT22;18207;32.078;34.818;2023-08-06T11:18:47;36.40;42.30
23618;DHT22;18207;32.078;34.818;2023-08-06T11:21:21;36.40;42.40
23618;DHT22;18207;32.078;34.818;2023-08-06T11:23:55;36.40;42.50
23618;DHT22;18207;32.078;34.818;2023-08-06T11:26:26;36.40;42.50
23618;DHT22;18207;32.078;34.818;2023-08-06T11:29:04;36.40;42.60
23618;DHT22;18207;32.078;34.818;2023-08-06T11:31:43;36.40;42.70
23618;DHT22;18207;32.078;34.818;2023-08-06T11:34:14;36.40;42.70
23618;DHT22;18207;32.078;34.818;2023-08-06T11:36:44;36.40;42.70
23618;DHT22;18207;32.078;34.818;2023-08-06T11:39:14;36.40;42.80
23618;DHT22;18207;32.078;34.818;2023-08-06T11:41:44;36.40;42.80
23618;DHT22;18207;32.078;34.818;2023-08-06T11:44:19;36.40;42.80
23618;DHT22;18207;32.078;34.818;2023-08-06T11:46:50;36.40;42.80
23618;DHT22;18207;32.078;34.818;2023-08-06T11:49:38;36.40;42.90
23618;DHT22;18207;32.078;34.818;2023-08-06T11:52:14;36.40;42.90
23618;DHT22;18207;32.078;34.818;2023-08-06T11:54:47;36.40;43.00
23618;DHT22;18207;32.078;34.818;2023-08-06T11:57:30;36.30;43.00
23618;DHT22;18207;32.078;34.818;2023-08-06T12:00:07;36.30;43.10
23618;DHT22;18207;32.078;34.818;2023-08-06T12:02:40;36.30;43.10
23618;DHT22;18207;32.078;34.818;2023-08-06T12:05:12;36.30;43.10
23618;DHT22;18207;32.078;34.818;2023-08-06T12:07:45;36.30;43.20
23618;DHT22;18207;32.078;34.818;2023-08-06T12:10:18;36.40;43.30
23618;DHT22;18207;32.078;34.818;2023-08-06T12:12:50;36.30;43.50
23618;DHT22;18207;32.078;34.818;2023-08-06T12:15:23;36.30;43.30
23618;DHT22;18207;32.078;34.818;2023-08-06T12:17:55;36.30;43.40
23618;DHT22;18207;32.078;34.818;2023-08-06T12:20:25;36.30;43.40
23618;DHT22;18207;32.078;34.818;2023-08-06T12:22:56;36.30;43.50
23618;DHT22;18207;32.078;34.818;2023-08-06T12:25:26;36.30;43.50
23618;DHT22;18207;32.078;34.818;2023-08-06T12:27:57;36.20;43.50
23618;DHT22;18207;32.078;34.818;2023-08-06T12:30:29;36.20;43.50
23618;DHT22;18207;32.078;34.818;2023-08-06T12:32:59;36.20;43.70
23618;DHT22;18207;32.078;34.818;2023-08-06T12:35:30;36.20;43.60
23618;DHT22;18207;32.078;34.818;2023-08-06T12:38:02;36.20;43.60
23618;DHT22;18207;32.078;34.818;2023-08-06T12:40:32;36.20;43.70
23618;DHT22;18207;32.078;34.818;2023-08-06T12:43:07;36.20;43.60
23618;DHT22;18207;32.078;34.818;2023-08-06T12:45:39;36.20;43.70
23618;DHT22;18207;32.078;34.818;2023-08-06T12:48:09;36.20;43.70
23618;DHT22;18207;32.078;34.818;2023-08-06T12:50:41;36.20;43.80
23618;DHT22;18207;32.078;34.818;2023-08-06T12:53:12;36.10;43.70
23618;DHT22;18207;32.078;34.818;2023-08-06T12:55:42;36.10;43.60
23618;DHT22;18207;32.078;34.818;2023-08-06T12:58:11;36.10;43.60
23618;DHT22;18207;32.078;34.818;2023-08-06T13:00:44;36.10;43.70
23618;DHT22;18207;32.078;34.818;2023-08-06T13:03:14;36.10;43.70
23618;DHT22;18207;32.078;34.818;2023-08-06T13:05:45;36.10;43.70
23618;DHT22;18207;32.078;34.818;2023-08-06T13:08:17;36.00;43.70
23618;DHT22;18207;32.078;34.818;2023-08-06T13:10:48;36.00;43.60
23618;DHT22;18207;32.078;34.818;2023-08-06T13:13:19;36.00;43.80
23618;DHT22;18207;32.078;34.818;2023-08-06T13:15:51;36.00;43.80
23618;DHT22;18207;32.078;34.818;2023-08-06T13:18:22;36.00;43.80
23618;DHT22;18207;32.078;34.818;2023-08-06T13:20:53;36.00;44.00
23618;DHT22;18207;32.078;34.818;2023-08-06T13:23:24;35.90;43.90
23618;DHT22;18207;32.078;34.818;2023-08-06T13:25:54;35.90;44.00
23618;DHT22;18207;32.078;34.818;2023-08-06T13:28:26;35.90;44.10
23618;DHT22;18207;32.078;34.818;2023-08-06T13:30:58;35.90;43.90
23618;DHT22;18207;32.078;34.818;2023-08-06T13:33:29;35.80;43.80
23618;DHT22;18207;32.078;34.818;2023-08-06T13:36:00;35.80;43.60
23618;DHT22;18207;32.078;34.818;2023-08-06T13:38:31;35.80;43.80
23618;DHT22;18207;32.078;34.818;2023-08-06T13:41:03;35.80;43.90
23618;DHT22;18207;32.078;34.818;2023-08-06T13:43:33;35.70;43.90
23618;DHT22;18207;32.078;34.818;2023-08-06T13:46:05;35.70;44.00
23618;DHT22;18207;32.078;34.818;2023-08-06T13:48:38;35.70;44.10
23618;DHT22;18207;32.078;34.818;2023-08-06T13:51:09;35.70;44.10
23618;DHT22;18207;32.078;34.818;2023-08-06T13:53:41;35.60;44.10
23618;DHT22;18207;32.078;34.818;2023-08-06T13:56:12;35.60;44.00
23618;DHT22;18207;32.078;34.818;2023-08-06T13:58:45;35.60;43.90
23618;DHT22;18207;32.078;34.818;2023-08-06T14:01:17;35.60;43.80
23618;DHT22;18207;32.078;34.818;2023-08-06T14:04:09;35.50;43.70
23618;DHT22;18207;32.078;34.818;2023-08-06T14:06:39;35.60;43.70
23618;DHT22;18207;32.078;34.818;2023-08-06T14:09:09;35.50;44.40
23618;DHT22;18207;32.078;34.818;2023-08-06T14:11:42;35.50;43.80
23618;DHT22;18207;32.078;34.818;2023-08-06T14:14:13;35.50;43.80
23618;DHT22;18207;32.078;34.818;2023-08-06T14:16:45;35.50;43.80
23618;DHT22;18207;32.078;34.818;2023-08-06T14:19:17;35.40;43.70
23618;DHT22;18207;32.078;34.818;2023-08-06T14:21:49;35.40;43.70
23618;DHT22;18207;32.078;34.818;2023-08-06T14:24:19;35.40;43.80
23618;DHT22;18207;32.078;34.818;2023-08-06T14:26:50;35.30;43.70
23618;DHT22;18207;32.078;34.818;2023-08-06T14:29:21;35.40;43.70
23618;DHT22;18207;32.078;34.818;2023-08-06T14:31:56;35.30;43.70
23618;DHT22;18207;32.078;34.818;2023-08-06T14:34:26;35.20;43.70
23618;DHT22;18207;32.078;34.818;2023-08-06T14:36:58;35.20;43.70
23618;DHT22;18207;32.078;34.818;2023-08-06T14:39:29;35.20;43.80
23618;DHT22;18207;32.078;34.818;2023-08-06T14:42:01;35.20;43.90
23618;DHT22;18207;32.078;34.818;2023-08-06T14:44:32;35.20;44.00
23618;DHT22;18207;32.078;34.818;2023-08-06T14:47:06;35.20;44.10
23618;DHT22;18207;32.078;34.818;2023-08-06T14:49:37;35.10;43.90
23618;DHT22;18207;32.078;34.818;2023-08-06T14:52:09;35.20;44.00
23618;DHT22;18207;32.078;34.818;2023-08-06T14:54:40;35.10;44.00
23618;DHT22;18207;32.078;34.818;2023-08-06T14:57:11;35.10;44.20
23618;DHT22;18207;32.078;34.818;2023-08-06T14:59:41;35.10;44.20
23618;DHT22;18207;32.078;34.818;2023-08-06T15:02:13;35.10;44.20
23618;DHT22;18207;32.078;34.818;2023-08-06T15:04:44;35.10;44.20
23618;DHT22;18207;32.078;34.818;2023-08-06T15:07:15;35.00;44.20
23618;DHT22;18207;32.078;34.818;2023-08-06T15:09:45;35.00;44.20
23618;DHT22;18207;32.078;34.818;2023-08-06T15:12:35;35.00;43.90
23618;DHT22;18207;32.078;34.818;2023-08-06T15:15:08;35.00;44.00
23618;DHT22;18207;32.078;34.818;2023-08-06T15:17:40;35.00;44.00
23618;DHT22;18207;32.078;34.818;2023-08-06T15:20:12;34.90;43.90
23618;DHT22;18207;32.078;34.818;2023-08-06T15:22:42;34.90;44.00
23618;DHT22;18207;32.078;34.818;2023-08-06T15:25:13;34.90;44.00
23618;DHT22;18207;32.078;34.818;2023-08-06T15:27:43;34.90;44.00
23618;DHT22;18207;32.078;34.818;2023-08-06T15:30:14;34.90;44.10
23618;DHT22;18207;32.078;34.818;2023-08-06T15:32:47;34.90;44.20
23618;DHT22;18207;32.078;34.818;2023-08-06T15:35:17;34.90;44.80
23618;DHT22;18207;32.078;34.818;2023-08-06T15:37:47;34.90;44.20
23618;DHT22;18207;32.078;34.818;2023-08-06T15:40:17;34.80;44.10
23618;DHT22;18207;32.078;34.818;2023-08-06T15:42:49;34.80;44.10